sensor_id;sensor_type;location;lat;lon;timestamp;pressure;altitude;pressure_sealevel;temperature;humidity
74334;BME280;62753;40.394;-80.022;2023-02-01T00:00:43;97957.63;;;3.57;28.10
74334;BME280;62753;40.394;-80.022;2023-02-01T00:03:08;97953.33;;;4.11;27.98
74334;BME280;62753;40.394;-80.022;2023-02-01T00:05:32;97959.30;;;4.50;27.77
74334;BME280;62753;40.394;-80.022;2023-02-01T00:07:58;97971.19;;;4.80;28.22
74334;BME280;62753;40.394;-80.022;2023-02-01T00:10:23;97990.09;;;4.35;28.31
74334;BME280;62753;40.394;-80.022;2023-02-01T00:12:49;97982.76;;;4.36;27.34
74334;BME280;62753;40.394;-80.022;2023-02-01T00:15:15;97983.45;;;4.05;28.00
74334;BME280;62753;40.394;-80.022;2023-02-01T00:17:41;97983.62;;;4.18;28.11
74334;BME280;62753;40.394;-80.022;2023-02-01T00:20:06;97972.66;;;3.99;27.83
74334;BME280;62753;40.394;-80.022;2023-02-01T00:22:31;97967.10;;;4.34;28.49
74334;BME280;62753;40.394;-80.022;2023-02-01T00:24:57;97968.99;;;4.64;28.08
74334;BME280;62753;40.394;-80.022;2023-02-01T00:27:22;97971.34;;;4.51;28.05
74334;BME280;62753;40.394;-80.022;2023-02-01T00:29:48;97985.62;;;4.37;27.93
74334;BME280;62753;40.394;-80.022;2023-02-01T00:32:13;97989.72;;;4.66;28.82
74334;BME280;62753;40.394;-80.022;2023-02-01T00:34:39;97991.43;;;4.26;28.51
74334;BME280;62753;40.394;-80.022;2023-02-01T00:37:04;97991.22;;;4.36;28.93
74334;BME280;62753;40.394;-80.022;2023-02-01T00:39:30;97987.70;;;4.31;28.96
74334;BME280;62753;40.394;-80.022;2023-02-01T00:41:55;97991.07;;;4.11;28.86
74334;BME280;62753;40.394;-80.022;2023-02-01T00:44:21;97999.80;;;4.38;28.67
74334;BME280;62753;40.394;-80.022;2023-02-01T00:46:46;97994.59;;;3.62;29.55
74334;BME280;62753;40.394;-80.022;2023-02-01T00:49:11;97980.25;;;2.06;30.59
74334;BME280;62753;40.394;-80.022;2023-02-01T00:51:37;97980.51;;;3.17;30.72
74334;BME280;62753;40.394;-80.022;2023-02-01T00:54:02;97982.16;;;3.19;30.04
74334;BME280;62753;40.394;-80.022;2023-02-01T00:56:27;97974.95;;;3.01;30.57
74334;BME280;62753;40.394;-80.022;2023-02-01T00:58:53;97970.79;;;3.19;29.91
74334;BME280;62753;40.394;-80.022;2023-02-01T01:01:20;97967.35;;;3.25;30.84
74334;BME280;62753;40.394;-80.022;2023-02-01T01:03:46;97974.97;;;3.59;29.52
74334;BME280;62753;40.394;-80.022;2023-02-01T01:06:10;97982.40;;;3.88;29.40
74334;BME280;62753;40.394;-80.022;2023-02-01T01:08:35;97991.14;;;3.08;29.48
74334;BME280;62753;40.394;-80.022;2023-02-01T01:11:04;98010.25;;;3.45;29.90
74334;BME280;62753;40.394;-80.022;2023-02-01T01:13:26;98021.33;;;3.23;29.37
74334;BME280;62753;40.394;-80.022;2023-02-01T01:15:51;98038.76;;;2.93;30.84
74334;BME280;62753;40.394;-80.022;2023-02-01T01:18:16;98018.25;;;2.45;31.19
74334;BME280;62753;40.394;-80.022;2023-02-01T01:20:41;98011.45;;;2.93;30.44
74334;BME280;62753;40.394;-80.022;2023-02-01T01:23:08;98026.00;;;3.08;30.22
74334;BME280;62753;40.394;-80.022;2023-02-01T01:25:36;98033.30;;;2.80;30.77
74334;BME280;62753;40.394;-80.022;2023-02-01T01:27:59;98020.95;;;2.47;30.97
74334;BME280;62753;40.394;-80.022;2023-02-01T01:30:24;98039.19;;;1.61;32.29
74334;BME280;62753;40.394;-80.022;2023-02-01T01:32:49;98026.40;;;2.43;31.90
74334;BME280;62753;40.394;-80.022;2023-02-01T01:35:15;98005.35;;;2.48;31.85
74334;BME280;62753;40.394;-80.022;2023-02-01T01:37:41;98000.03;;;2.96;31.42
74334;BME280;62753;40.394;-80.022;2023-02-01T01:40:09;97985.41;;;3.20;30.37
74334;BME280;62753;40.394;-80.022;2023-02-01T01:42:37;97990.79;;;3.49;30.29
74334;BME280;62753;40.394;-80.022;2023-02-01T01:45:01;97987.78;;;3.19;31.00
74334;BME280;62753;40.394;-80.022;2023-02-01T01:47:23;97982.61;;;3.34;30.86
74334;BME280;62753;40.394;-80.022;2023-02-01T01:49:49;97987.33;;;3.25;30.72
74334;BME280;62753;40.394;-80.022;2023-02-01T01:52:14;97982.65;;;2.81;30.74
74334;BME280;62753;40.394;-80.022;2023-02-01T01:54:42;97987.19;;;3.06;30.88
74334;BME280;62753;40.394;-80.022;2023-02-01T01:57:08;97988.71;;;2.89;30.98
74334;BME280;62753;40.394;-80.022;2023-02-01T01:59:32;97978.27;;;3.30;30.90
74334;BME280;62753;40.394;-80.022;2023-02-01T02:01:56;97980.77;;;3.34;30.67
74334;BME280;62753;40.394;-80.022;2023-02-01T02:04:22;97987.58;;;3.49;30.73
74334;BME280;62753;40.394;-80.022;2023-02-01T02:06:50;97977.81;;;2.83;30.79
74334;BME280;62753;40.394;-80.022;2023-02-01T02:09:11;97995.95;;;2.46;31.94
74334;BME280;62753;40.394;-80.022;2023-02-01T02:11:37;97994.13;;;2.15;32.33
74334;BME280;62753;40.394;-80.022;2023-02-01T02:14:06;97996.50;;;3.33;31.76
74334;BME280;62753;40.394;-80.022;2023-02-01T02:16:42;97995.09;;;3.12;30.77
74334;BME280;62753;40.394;-80.022;2023-02-01T02:19:01;97990.39;;;2.17;32.74
74334;BME280;62753;40.394;-80.022;2023-02-01T02:21:29;97987.75;;;2.66;31.64
74334;BME280;62753;40.394;-80.022;2023-02-01T02:23:57;97974.92;;;1.56;33.22
74334;BME280;62753;40.394;-80.022;2023-02-01T02:35:54;97975.76;;;2.26;31.31
74334;BME280;62753;40.394;-80.022;2023-02-01T02:38:24;97964.19;;;2.05;31.29
74334;BME280;62753;40.394;-80.022;2023-02-01T02:40:48;97997.70;;;2.96;29.96
74334;BME280;62753;40.394;-80.022;2023-02-01T02:43:11;98021.23;;;3.24;29.12
74334;BME280;62753;40.394;-80.022;2023-02-01T02:45:40;98007.34;;;2.81;30.29
74334;BME280;62753;40.394;-80.022;2023-02-01T02:48:06;98006.21;;;2.56;29.91
74334;BME280;62753;40.394;-80.022;2023-02-01T02:50:29;98010.68;;;2.08;31.34
74334;BME280;62753;40.394;-80.022;2023-02-01T02:52:57;98011.90;;;2.55;31.22
74334;BME280;62753;40.394;-80.022;2023-02-01T02:55:17;97998.02;;;3.00;30.94
74334;BME280;62753;40.394;-80.022;2023-02-01T02:57:43;98002.72;;;2.57;30.35
74334;BME280;62753;40.394;-80.022;2023-02-01T03:00:11;98011.41;;;3.00;30.57
74334;BME280;62753;40.394;-80.022;2023-02-01T03:02:33;98016.90;;;2.74;30.05
74334;BME280;62753;40.394;-80.022;2023-02-01T03:04:58;98008.01;;;3.38;29.84
74334;BME280;62753;40.394;-80.022;2023-02-01T03:09:49;97997.48;;;3.50;30.28
74334;BME280;62753;40.394;-80.022;2023-02-01T03:12:15;98010.53;;;3.34;30.08
74334;BME280;62753;40.394;-80.022;2023-02-01T03:14:41;98016.47;;;1.97;31.92
74334;BME280;62753;40.394;-80.022;2023-02-01T03:17:10;98014.09;;;2.18;32.61
74334;BME280;62753;40.394;-80.022;2023-02-01T03:19:34;98003.08;;;3.39;31.38
74334;BME280;62753;40.394;-80.022;2023-02-01T03:22:00;98019.07;;;3.78;30.44
74334;BME280;62753;40.394;-80.022;2023-02-01T03:24:25;98002.92;;;3.20;30.68
74334;BME280;62753;40.394;-80.022;2023-02-01T03:26:52;97979.74;;;2.71;31.66
74334;BME280;62753;40.394;-80.022;2023-02-01T03:29:17;97979.10;;;2.29;31.52
74334;BME280;62753;40.394;-80.022;2023-02-01T03:31:38;97985.16;;;2.89;30.91
74334;BME280;62753;40.394;-80.022;2023-02-01T03:34:04;98007.50;;;3.04;31.31
74334;BME280;62753;40.394;-80.022;2023-02-01T03:36:33;98009.30;;;3.07;31.45
74334;BME280;62753;40.394;-80.022;2023-02-01T03:39:00;97989.79;;;2.53;32.05
74334;BME280;62753;40.394;-80.022;2023-02-01T03:41:26;97971.82;;;3.00;31.16
74334;BME280;62753;40.394;-80.022;2023-02-01T03:43:51;97951.13;;;2.67;30.72
74334;BME280;62753;40.394;-80.022;2023-02-01T03:46:14;97953.11;;;2.66;30.75
74334;BME280;62753;40.394;-80.022;2023-02-01T03:48:36;97952.57;;;2.81;31.01
74334;BME280;62753;40.394;-80.022;2023-02-01T03:51:02;97964.49;;;3.32;30.74
74334;BME280;62753;40.394;-80.022;2023-02-01T03:53:26;97967.67;;;3.39;30.31
74334;BME280;62753;40.394;-80.022;2023-02-01T03:55:52;97982.23;;;2.28;31.24
74334;BME280;62753;40.394;-80.022;2023-02-01T03:58:19;97985.08;;;1.17;32.21
74334;BME280;62753;40.394;-80.022;2023-02-01T04:00:45;97974.82;;;1.92;32.41
74334;BME280;62753;40.394;-80.022;2023-02-01T04:03:08;97991.91;;;2.47;31.56
74334;BME280;62753;40.394;-80.022;2023-02-01T04:05:35;97987.29;;;2.25;31.06
74334;BME280;62753;40.394;-80.022;2023-02-01T04:07:59;97990.51;;;2.52;31.05
74334;BME280;62753;40.394;-80.022;2023-02-01T04:10:26;98008.10;;;1.93;31.35
74334;BME280;62753;40.394;-80.022;2023-02-01T04:12:50;98021.21;;;1.99;30.94
74334;BME280;62753;40.394;-80.022;2023-02-01T04:15:16;98006.84;;;2.41;31.14
74334;BME280;62753;40.394;-80.022;2023-02-01T04:17:41;98004.24;;;0.69;33.10
74334;BME280;62753;40.394;-80.022;2023-02-01T04:20:07;98002.06;;;0.75;33.45
74334;BME280;62753;40.394;-80.022;2023-02-01T04:22:33;98013.16;;;1.38;33.21
74334;BME280;62753;40.394;-80.022;2023-02-01T04:24:58;98011.65;;;2.35;32.30
74334;BME280;62753;40.394;-80.022;2023-02-01T04:27:23;98014.00;;;2.30;32.09
74334;BME280;62753;40.394;-80.022;2023-02-01T04:29:49;98003.63;;;2.06;32.48
74334;BME280;62753;40.394;-80.022;2023-02-01T04:32:14;98006.43;;;2.66;31.65
74334;BME280;62753;40.394;-80.022;2023-02-01T04:34:39;98009.25;;;3.23;30.73
74334;BME280;62753;40.394;-80.022;2023-02-01T04:37:04;98024.58;;;2.84;31.21
74334;BME280;62753;40.394;-80.022;2023-02-01T04:39:29;98034.36;;;1.78;32.02
74334;BME280;62753;40.394;-80.022;2023-02-01T04:41:55;98021.22;;;2.30;31.87
74334;BME280;62753;40.394;-80.022;2023-02-01T04:44:21;98006.85;;;2.75;31.59
74334;BME280;62753;40.394;-80.022;2023-02-01T04:46:46;98013.82;;;1.88;32.26
74334;BME280;62753;40.394;-80.022;2023-02-01T04:49:12;98024.70;;;1.69;31.83
74334;BME280;62753;40.394;-80.022;2023-02-01T04:51:36;98011.12;;;2.75;29.93
74334;BME280;62753;40.394;-80.022;2023-02-01T04:54:02;98027.24;;;2.93;29.77
74334;BME280;62753;40.394;-80.022;2023-02-01T04:56:27;98027.02;;;2.91;29.12
74334;BME280;62753;40.394;-80.022;2023-02-01T04:58:52;98028.74;;;2.80;28.80
74334;BME280;62753;40.394;-80.022;2023-02-01T05:01:18;98024.16;;;2.55;28.85
74334;BME280;62753;40.394;-80.022;2023-02-01T05:03:43;98017.54;;;2.90;28.70
74334;BME280;62753;40.394;-80.022;2023-02-01T05:06:09;98014.74;;;3.34;28.19
74334;BME280;62753;40.394;-80.022;2023-02-01T05:08:34;98026.32;;;3.51;28.37
74334;BME280;62753;40.394;-80.022;2023-02-01T05:11:00;98023.97;;;3.25;27.86
74334;BME280;62753;40.394;-80.022;2023-02-01T05:13:25;98031.62;;;3.34;28.26
74334;BME280;62753;40.394;-80.022;2023-02-01T05:15:51;98038.25;;;2.83;28.65
74334;BME280;62753;40.394;-80.022;2023-02-01T05:18:15;98026.03;;;3.27;28.71
74334;BME280;62753;40.394;-80.022;2023-02-01T05:20:41;98042.34;;;3.51;28.44
74334;BME280;62753;40.394;-80.022;2023-02-01T05:23:07;98055.84;;;3.13;29.11
74334;BME280;62753;40.394;-80.022;2023-02-01T05:25:33;98058.76;;;2.18;30.70
74334;BME280;62753;40.394;-80.022;2023-02-01T05:27:59;98012.79;;;2.68;30.14
74334;BME280;62753;40.394;-80.022;2023-02-01T05:30:23;98031.56;;;2.48;30.56
74334;BME280;62753;40.394;-80.022;2023-02-01T05:32:50;98022.17;;;3.22;29.53
74334;BME280;62753;40.394;-80.022;2023-02-01T05:35:15;98024.41;;;2.94;29.56
74334;BME280;62753;40.394;-80.022;2023-02-01T05:37:40;98020.58;;;2.89;28.84
74334;BME280;62753;40.394;-80.022;2023-02-01T05:40:06;98018.69;;;2.51;29.55
74334;BME280;62753;40.394;-80.022;2023-02-01T05:42:31;98015.62;;;1.91;30.35
74334;BME280;62753;40.394;-80.022;2023-02-01T05:44:56;98018.04;;;2.12;30.36
74334;BME280;62753;40.394;-80.022;2023-02-01T05:47:22;98015.92;;;1.68;30.50
74334;BME280;62753;40.394;-80.022;2023-02-01T05:49:47;98010.00;;;1.98;30.14
74334;BME280;62753;40.394;-80.022;2023-02-01T05:52:13;98008.02;;;2.58;29.57
74334;BME280;62753;40.394;-80.022;2023-02-01T05:54:38;98009.65;;;2.81;29.34
74334;BME280;62753;40.394;-80.022;2023-02-01T05:57:03;98002.42;;;1.76;29.63
74334;BME280;62753;40.394;-80.022;2023-02-01T05:59:29;98003.06;;;2.58;28.56
74334;BME280;62753;40.394;-80.022;2023-02-01T06:01:54;98002.84;;;2.44;28.96
74334;BME280;62753;40.394;-80.022;2023-02-01T06:04:19;98012.49;;;2.05;29.61
74334;BME280;62753;40.394;-80.022;2023-02-01T06:06:45;98012.92;;;2.87;29.02
74334;BME280;62753;40.394;-80.022;2023-02-01T06:09:11;98009.40;;;2.71;29.49
74334;BME280;62753;40.394;-80.022;2023-02-01T06:11:35;98018.90;;;1.46;29.85
74334;BME280;62753;40.394;-80.022;2023-02-01T06:14:01;98008.58;;;1.79;30.79
74334;BME280;62753;40.394;-80.022;2023-02-01T06:16:27;98003.14;;;2.59;29.59
74334;BME280;62753;40.394;-80.022;2023-02-01T06:18:51;98002.65;;;2.66;28.80
74334;BME280;62753;40.394;-80.022;2023-02-01T06:21:16;98008.01;;;1.62;30.27
74334;BME280;62753;40.394;-80.022;2023-02-01T06:23:42;98018.28;;;2.38;30.35
74334;BME280;62753;40.394;-80.022;2023-02-01T06:26:07;98027.73;;;2.88;29.33
74334;BME280;62753;40.394;-80.022;2023-02-01T06:28:33;98011.87;;;1.69;29.97
74334;BME280;62753;40.394;-80.022;2023-02-01T06:30:57;98008.08;;;1.63;29.59
74334;BME280;62753;40.394;-80.022;2023-02-01T06:33:22;98004.67;;;2.42;29.56
74334;BME280;62753;40.394;-80.022;2023-02-01T06:35:48;97989.30;;;2.52;29.29
74334;BME280;62753;40.394;-80.022;2023-02-01T06:38:13;97994.69;;;2.68;28.80
74334;BME280;62753;40.394;-80.022;2023-02-01T06:40:39;97989.06;;;2.86;29.07
74334;BME280;62753;40.394;-80.022;2023-02-01T06:43:04;97981.79;;;3.10;28.27
74334;BME280;62753;40.394;-80.022;2023-02-01T06:45:30;97985.89;;;2.24;29.07
74334;BME280;62753;40.394;-80.022;2023-02-01T06:47:55;97993.43;;;2.86;28.92
74334;BME280;62753;40.394;-80.022;2023-02-01T06:50:20;98001.14;;;2.74;28.93
74334;BME280;62753;40.394;-80.022;2023-02-01T06:52:46;97992.72;;;2.67;29.07
74334;BME280;62753;40.394;-80.022;2023-02-01T06:55:11;98003.63;;;2.62;28.43
74334;BME280;62753;40.394;-80.022;2023-02-01T06:57:37;97999.81;;;1.94;29.66
74334;BME280;62753;40.394;-80.022;2023-02-01T07:00:03;98001.08;;;2.59;29.21
74334;BME280;62753;40.394;-80.022;2023-02-01T07:02:27;98006.56;;;2.54;28.82
74334;BME280;62753;40.394;-80.022;2023-02-01T07:04:53;98005.39;;;2.38;29.01
74334;BME280;62753;40.394;-80.022;2023-02-01T07:07:18;98012.97;;;1.81;29.49
74334;BME280;62753;40.394;-80.022;2023-02-01T07:09:44;98022.02;;;1.25;30.46
74334;BME280;62753;40.394;-80.022;2023-02-01T07:12:10;98022.38;;;2.10;29.66
74334;BME280;62753;40.394;-80.022;2023-02-01T07:14:35;98022.19;;;1.54;29.85
74334;BME280;62753;40.394;-80.022;2023-02-01T07:17:01;98014.66;;;2.14;29.58
74334;BME280;62753;40.394;-80.022;2023-02-01T07:19:26;98028.04;;;2.28;29.41
74334;BME280;62753;40.394;-80.022;2023-02-01T07:21:52;98035.30;;;2.41;28.79
74334;BME280;62753;40.394;-80.022;2023-02-01T07:24:18;98050.55;;;2.55;28.66
74334;BME280;62753;40.394;-80.022;2023-02-01T07:26:43;98065.62;;;2.06;29.23
74334;BME280;62753;40.394;-80.022;2023-02-01T07:29:08;98057.54;;;1.73;29.19
74334;BME280;62753;40.394;-80.022;2023-02-01T07:31:33;98067.01;;;1.14;29.90
74334;BME280;62753;40.394;-80.022;2023-02-01T07:33:58;98071.67;;;1.34;30.43
74334;BME280;62753;40.394;-80.022;2023-02-01T07:36:24;98065.99;;;1.59;30.08
74334;BME280;62753;40.394;-80.022;2023-02-01T07:38:50;98051.57;;;1.44;29.98
74334;BME280;62753;40.394;-80.022;2023-02-01T07:41:16;98043.07;;;1.05;30.64
74334;BME280;62753;40.394;-80.022;2023-02-01T07:43:41;98044.72;;;1.27;30.29
74334;BME280;62753;40.394;-80.022;2023-02-01T07:46:07;98053.95;;;1.83;29.49
74334;BME280;62753;40.394;-80.022;2023-02-01T07:48:32;98048.00;;;1.89;29.70
74334;BME280;62753;40.394;-80.022;2023-02-01T07:50:58;98032.58;;;1.43;30.05
74334;BME280;62753;40.394;-80.022;2023-02-01T07:53:22;98032.25;;;1.53;30.65
74334;BME280;62753;40.394;-80.022;2023-02-01T07:55:48;98041.80;;;1.64;30.34
74334;BME280;62753;40.394;-80.022;2023-02-01T07:58:14;98041.25;;;1.32;30.99
74334;BME280;62753;40.394;-80.022;2023-02-01T08:00:39;98048.76;;;1.83;30.99
74334;BME280;62753;40.394;-80.022;2023-02-01T08:03:05;98050.68;;;1.48;31.49
74334;BME280;62753;40.394;-80.022;2023-02-01T08:05:30;98050.27;;;1.44;31.94
74334;BME280;62753;40.394;-80.022;2023-02-01T08:07:56;98043.30;;;1.17;32.11
74334;BME280;62753;40.394;-80.022;2023-02-01T08:10:21;98038.11;;;0.90;32.12
74334;BME280;62753;40.394;-80.022;2023-02-01T08:12:47;98050.61;;;0.52;32.79
74334;BME280;62753;40.394;-80.022;2023-02-01T08:15:12;98052.22;;;1.02;32.78
74334;BME280;62753;40.394;-80.022;2023-02-01T08:17:37;98062.48;;;1.06;32.84
74334;BME280;62753;40.394;-80.022;2023-02-01T08:20:03;98063.10;;;1.48;32.61
74334;BME280;62753;40.394;-80.022;2023-02-01T08:22:31;98057.93;;;1.30;31.65
74334;BME280;62753;40.394;-80.022;2023-02-01T08:24:54;98065.03;;;1.64;31.34
74334;BME280;62753;40.394;-80.022;2023-02-01T08:27:20;98070.03;;;1.32;31.76
74334;BME280;62753;40.394;-80.022;2023-02-01T08:29:45;98077.84;;;1.28;31.80
74334;BME280;62753;40.394;-80.022;2023-02-01T08:32:11;98073.37;;;1.65;31.21
74334;BME280;62753;40.394;-80.022;2023-02-01T08:34:36;98076.62;;;1.06;31.46
74334;BME280;62753;40.394;-80.022;2023-02-01T08:37:02;98083.27;;;1.27;32.04
74334;BME280;62753;40.394;-80.022;2023-02-01T08:39:27;98092.30;;;0.74;32.78
74334;BME280;62753;40.394;-80.022;2023-02-01T08:41:52;98091.33;;;0.47;33.04
74334;BME280;62753;40.394;-80.022;2023-02-01T08:44:18;98096.24;;;0.84;32.75
74334;BME280;62753;40.394;-80.022;2023-02-01T08:46:43;98109.89;;;0.75;32.80
74334;BME280;62753;40.394;-80.022;2023-02-01T08:49:08;98110.34;;;0.15;32.81
74334;BME280;62753;40.394;-80.022;2023-02-01T08:51:37;98108.94;;;0.27;33.53
74334;BME280;62753;40.394;-80.022;2023-02-01T08:54:00;98097.71;;;-0.46;34.02
74334;BME280;62753;40.394;-80.022;2023-02-01T08:56:25;98102.22;;;-0.08;34.15
74334;BME280;62753;40.394;-80.022;2023-02-01T08:58:51;98106.99;;;-0.83;35.57
74334;BME280;62753;40.394;-80.022;2023-02-01T09:01:17;98106.74;;;-0.77;35.89
74334;BME280;62753;40.394;-80.022;2023-02-01T09:03:42;98099.34;;;-1.53;37.01
74334;BME280;62753;40.394;-80.022;2023-02-01T09:06:10;98099.70;;;-0.96;36.41
74334;BME280;62753;40.394;-80.022;2023-02-01T09:08:34;98108.40;;;-1.25;36.67
74334;BME280;62753;40.394;-80.022;2023-02-01T09:10:59;98108.08;;;-0.70;36.15
74334;BME280;62753;40.394;-80.022;2023-02-01T09:13:24;98111.81;;;-0.63;35.69
74334;BME280;62753;40.394;-80.022;2023-02-01T09:15:51;98113.43;;;-1.15;35.75
74334;BME280;62753;40.394;-80.022;2023-02-01T09:18:15;98118.43;;;-0.11;34.89
74334;BME280;62753;40.394;-80.022;2023-02-01T09:20:41;98118.22;;;-0.44;34.35
74334;BME280;62753;40.394;-80.022;2023-02-01T09:23:06;98109.82;;;-0.11;34.26
74334;BME280;62753;40.394;-80.022;2023-02-01T09:25:32;98119.43;;;-1.34;35.73
74334;BME280;62753;40.394;-80.022;2023-02-01T09:27:57;98117.92;;;-1.49;36.47
74334;BME280;62753;40.394;-80.022;2023-02-01T09:30:23;98118.89;;;-2.23;37.46
74334;BME280;62753;40.394;-80.022;2023-02-01T09:32:48;98132.63;;;-2.22;37.47
74334;BME280;62753;40.394;-80.022;2023-02-01T09:35:13;98138.09;;;-3.18;38.91
74334;BME280;62753;40.394;-80.022;2023-02-01T09:37:39;98134.42;;;-2.71;38.39
74334;BME280;62753;40.394;-80.022;2023-02-01T09:40:05;98138.06;;;-2.29;37.94
74334;BME280;62753;40.394;-80.022;2023-02-01T09:42:48;98140.20;;;-1.74;37.16
74334;BME280;62753;40.394;-80.022;2023-02-01T09:45:06;98142.87;;;-2.36;37.66
74334;BME280;62753;40.394;-80.022;2023-02-01T09:47:23;98153.91;;;-1.79;36.45
74334;BME280;62753;40.394;-80.022;2023-02-01T09:49:52;98161.19;;;-1.46;36.05
74334;BME280;62753;40.394;-80.022;2023-02-01T09:52:13;98159.02;;;-1.56;36.23
74334;BME280;62753;40.394;-80.022;2023-02-01T09:54:44;98158.12;;;-1.90;36.97
74334;BME280;62753;40.394;-80.022;2023-02-01T09:57:07;98163.70;;;-2.08;37.23
74334;BME280;62753;40.394;-80.022;2023-02-01T09:59:36;98158.45;;;-1.66;36.45
74334;BME280;62753;40.394;-80.022;2023-02-01T10:01:55;98167.31;;;-1.51;35.89
74334;BME280;62753;40.394;-80.022;2023-02-01T10:04:20;98172.23;;;-2.02;36.78
74334;BME280;62753;40.394;-80.022;2023-02-01T10:06:55;98171.53;;;-1.85;36.17
74334;BME280;62753;40.394;-80.022;2023-02-01T10:09:23;98165.77;;;-1.82;35.82
74334;BME280;62753;40.394;-80.022;2023-02-01T10:11:46;98170.59;;;-2.33;37.25
74334;BME280;62753;40.394;-80.022;2023-02-01T10:14:08;98167.49;;;-2.91;37.44
74334;BME280;62753;40.394;-80.022;2023-02-01T10:16:37;98161.90;;;-2.49;37.61
74334;BME280;62753;40.394;-80.022;2023-02-01T10:19:08;98163.51;;;-1.90;37.07
74334;BME280;62753;40.394;-80.022;2023-02-01T10:21:30;98164.36;;;-2.35;36.92
74334;BME280;62753;40.394;-80.022;2023-02-01T10:24:05;98172.16;;;-1.64;36.42
74334;BME280;62753;40.394;-80.022;2023-02-01T10:26:18;98177.04;;;-1.42;35.33
74334;BME280;62753;40.394;-80.022;2023-02-01T10:28:37;98183.15;;;-1.30;34.55
74334;BME280;62753;40.394;-80.022;2023-02-01T10:31:02;98180.35;;;-1.10;33.89
74334;BME280;62753;40.394;-80.022;2023-02-01T10:33:32;98179.27;;;-0.59;33.33
74334;BME280;62753;40.394;-80.022;2023-02-01T10:35:58;98175.64;;;-0.92;33.50
74334;BME280;62753;40.394;-80.022;2023-02-01T10:38:24;98175.52;;;-0.83;33.59
74334;BME280;62753;40.394;-80.022;2023-02-01T10:40:44;98179.01;;;-0.85;33.08
74334;BME280;62753;40.394;-80.022;2023-02-01T10:43:10;98182.48;;;-0.52;32.81
74334;BME280;62753;40.394;-80.022;2023-02-01T10:45:37;98186.22;;;-1.32;33.24
74334;BME280;62753;40.394;-80.022;2023-02-01T10:48:02;98183.40;;;-1.60;33.56
74334;BME280;62753;40.394;-80.022;2023-02-01T10:50:35;98173.18;;;-1.80;34.58
74334;BME280;62753;40.394;-80.022;2023-02-01T10:52:57;98182.53;;;-1.53;34.33
74334;BME280;62753;40.394;-80.022;2023-02-01T10:55:28;98189.85;;;-1.25;33.85
74334;BME280;62753;40.394;-80.022;2023-02-01T11:00:18;98184.06;;;-0.86;32.81
74334;BME280;62753;40.394;-80.022;2023-02-01T11:02:35;98183.37;;;-0.89;32.41
74334;BME280;62753;40.394;-80.022;2023-02-01T11:05:02;98185.79;;;-0.29;31.81
74334;BME280;62753;40.394;-80.022;2023-02-01T11:07:27;98200.09;;;0.01;31.80
74334;BME280;62753;40.394;-80.022;2023-02-01T11:09:52;98206.80;;;-0.35;31.66
74334;BME280;62753;40.394;-80.022;2023-02-01T11:12:31;98211.94;;;-0.65;32.17
74334;BME280;62753;40.394;-80.022;2023-02-01T11:14:41;98218.88;;;-1.38;32.49
74334;BME280;62753;40.394;-80.022;2023-02-01T11:17:23;98221.11;;;-0.74;32.58
74334;BME280;62753;40.394;-80.022;2023-02-01T11:19:32;98222.76;;;-1.63;32.90
74334;BME280;62753;40.394;-80.022;2023-02-01T11:21:59;98226.98;;;-1.57;32.99
74334;BME280;62753;40.394;-80.022;2023-02-01T11:24:25;98236.62;;;-1.44;32.88
74334;BME280;62753;40.394;-80.022;2023-02-01T11:26:50;98248.13;;;-2.09;34.43
74334;BME280;62753;40.394;-80.022;2023-02-01T11:29:18;98254.68;;;-2.11;33.95
74334;BME280;62753;40.394;-80.022;2023-02-01T11:31:41;98256.08;;;-2.02;33.78
74334;BME280;62753;40.394;-80.022;2023-02-01T11:34:08;98263.69;;;-2.42;34.48
74334;BME280;62753;40.394;-80.022;2023-02-01T11:36:33;98265.87;;;-2.95;34.91
74334;BME280;62753;40.394;-80.022;2023-02-01T11:39:10;98263.38;;;-2.07;33.88
74334;BME280;62753;40.394;-80.022;2023-02-01T11:41:24;98251.31;;;-1.83;33.20
74334;BME280;62753;40.394;-80.022;2023-02-01T11:43:54;98254.59;;;-1.66;32.74
74334;BME280;62753;40.394;-80.022;2023-02-01T11:46:18;98262.06;;;-2.07;33.57
74334;BME280;62753;40.394;-80.022;2023-02-01T11:48:37;98266.94;;;-2.19;33.37
74334;BME280;62753;40.394;-80.022;2023-02-01T11:51:15;98253.80;;;-2.33;33.03
74334;BME280;62753;40.394;-80.022;2023-02-01T11:53:39;98255.81;;;-1.66;32.58
74334;BME280;62753;40.394;-80.022;2023-02-01T11:56:00;98254.79;;;-1.51;32.40
74334;BME280;62753;40.394;-80.022;2023-02-01T11:58:35;98261.33;;;-1.76;32.41
74334;BME280;62753;40.394;-80.022;2023-02-01T12:00:56;98258.22;;;-1.13;31.74
74334;BME280;62753;40.394;-80.022;2023-02-01T12:03:30;98261.55;;;-1.25;31.77
74334;BME280;62753;40.394;-80.022;2023-02-01T12:05:46;98260.91;;;-1.81;32.18
74334;BME280;62753;40.394;-80.022;2023-02-01T12:08:16;98262.84;;;-1.53;32.44
74334;BME280;62753;40.394;-80.022;2023-02-01T12:10:36;98268.65;;;-1.52;32.22
74334;BME280;62753;40.394;-80.022;2023-02-01T12:13:00;98282.63;;;-2.08;32.96
74334;BME280;62753;40.394;-80.022;2023-02-01T12:15:31;98284.58;;;-1.76;32.94
74334;BME280;62753;40.394;-80.022;2023-02-01T12:17:53;98281.05;;;-1.71;32.58
74334;BME280;62753;40.394;-80.022;2023-02-01T12:20:30;98290.63;;;-1.23;32.18
74334;BME280;62753;40.394;-80.022;2023-02-01T12:22:42;98299.52;;;-1.81;32.22
74334;BME280;62753;40.394;-80.022;2023-02-01T12:25:13;98307.71;;;-1.14;32.10
74334;BME280;62753;40.394;-80.022;2023-02-01T12:27:40;98310.72;;;-0.83;31.88
74334;BME280;62753;40.394;-80.022;2023-02-01T12:32:28;98319.63;;;-1.40;30.97
74334;BME280;62753;40.394;-80.022;2023-02-01T12:34:54;98313.90;;;-1.10;30.77
74334;BME280;62753;40.394;-80.022;2023-02-01T12:37:15;98314.84;;;-0.89;30.13
74334;BME280;62753;40.394;-80.022;2023-02-01T12:39:39;98317.48;;;-0.79;29.88
74334;BME280;62753;40.394;-80.022;2023-02-01T12:42:03;98332.75;;;-1.39;30.56
74334;BME280;62753;40.394;-80.022;2023-02-01T12:44:32;98341.13;;;-2.17;31.79
74334;BME280;62753;40.394;-80.022;2023-02-01T12:46:54;98345.99;;;-2.22;31.69
74334;BME280;62753;40.394;-80.022;2023-02-01T12:49:21;98348.32;;;-2.69;32.69
74334;BME280;62753;40.394;-80.022;2023-02-01T12:51:45;98351.77;;;-2.43;32.31
74334;BME280;62753;40.394;-80.022;2023-02-01T12:54:12;98343.87;;;-2.31;32.38